sensor_id;sensor_type;location;lat;lon;timestamp;pressure;altitude;pressure_sealevel;temperature;humidity
50226;BME280;36113;50.742;6.432;2024-01-15T00:01:05;97611.31;;;-1.20;90.80
50226;BME280;36113;50.742;6.432;2024-01-15T00:03:30;97599.47;;;-1.25;90.74
50226;BME280;36113;50.742;6.432;2024-01-15T00:05:55;97593.47;;;-1.20;90.80
50226;BME280;36113;50.742;6.432;2024-01-15T00:08:21;97589.78;;;-1.19;90.49
50226;BME280;36113;50.742;6.432;2024-01-15T00:10:46;97553.06;;;-1.35;90.72
50226;BME280;36113;50.742;6.432;2024-01-15T00:13:11;97579.44;;;-1.15;90.16
50226;BME280;36113;50.742;6.432;2024-01-15T00:15:37;97575.03;;;-1.21;90.55
50226;BME280;36113;50.742;6.432;2024-01-15T00:18:02;97587.91;;;-1.18;90.99
50226;BME280;36113;50.742;6.432;2024-01-15T00:20:27;97599.53;;;-1.13;91.34
50226;BME280;36113;50.742;6.432;2024-01-15T00:22:53;97600.94;;;-1.10;91.46
50226;BME280;36113;50.742;6.432;2024-01-15T00:25:18;97584.94;;;-1.10;91.27
50226;BME280;36113;50.742;6.432;2024-01-15T00:27:43;97571.53;;;-1.22;91.31
50226;BME280;36113;50.742;6.432;2024-01-15T00:30:09;97574.09;;;-1.15;91.43
50226;BME280;36113;50.742;6.432;2024-01-15T00:32:34;97563.00;;;-1.12;91.01
50226;BME280;36113;50.742;6.432;2024-01-15T00:35:00;97582.75;;;-1.01;91.09
50226;BME280;36113;50.742;6.432;2024-01-15T00:37:25;97547.78;;;-1.23;90.95
50226;BME280;36113;50.742;6.432;2024-01-15T00:39:50;97582.97;;;-1.03;91.18
50226;BME280;36113;50.742;6.432;2024-01-15T00:42:15;97571.84;;;-1.00;91.21
50226;BME280;36113;50.742;6.432;2024-01-15T00:44:44;97567.94;;;-0.97;90.45
50226;BME280;36113;50.742;6.432;2024-01-15T00:47:09;97571.41;;;-0.97;90.48
50226;BME280;36113;50.742;6.432;2024-01-15T00:49:34;97571.75;;;-0.93;90.14
50226;BME280;36113;50.742;6.432;2024-01-15T00:52:00;97565.59;;;-0.94;89.99
50226;BME280;36113;50.742;6.432;2024-01-15T00:54:26;97565.00;;;-0.96;89.86
50226;BME280;36113;50.742;6.432;2024-01-15T00:56:51;97559.69;;;-0.96;89.78
50226;BME280;36113;50.742;6.432;2024-01-15T00:59:16;97550.50;;;-1.00;89.79
50226;BME280;36113;50.742;6.432;2024-01-15T01:01:43;97531.59;;;-1.10;90.07
50226;BME280;36113;50.742;6.432;2024-01-15T01:04:09;97559.84;;;-0.91;90.00
50226;BME280;36113;50.742;6.432;2024-01-15T01:06:34;97565.16;;;-0.91;89.94
50226;BME280;36113;50.742;6.432;2024-01-15T01:09:00;97553.66;;;-0.91;89.65
50226;BME280;36113;50.742;6.432;2024-01-15T01:11:25;97549.69;;;-1.00;89.36
50226;BME280;36113;50.742;6.432;2024-01-15T01:13:50;97566.31;;;-0.87;89.18
50226;BME280;36113;50.742;6.432;2024-01-15T01:16:16;97519.66;;;-1.08;89.70
50226;BME280;36113;50.742;6.432;2024-01-15T01:18:42;97552.38;;;-0.89;89.56
50226;BME280;36113;50.742;6.432;2024-01-15T01:21:07;97520.56;;;-1.14;89.98
50226;BME280;36113;50.742;6.432;2024-01-15T01:23:32;97549.16;;;-0.91;90.01
50226;BME280;36113;50.742;6.432;2024-01-15T01:25:57;97540.19;;;-0.96;90.23
50226;BME280;36113;50.742;6.432;2024-01-15T01:28:23;97499.91;;;-1.30;90.74
50226;BME280;36113;50.742;6.432;2024-01-15T01:30:48;97540.91;;;-1.01;90.87
50226;BME280;36113;50.742;6.432;2024-01-15T01:33:13;97520.34;;;-1.12;90.94
50226;BME280;36113;50.742;6.432;2024-01-15T01:35:39;97552.47;;;-0.95;91.29
50226;BME280;36113;50.742;6.432;2024-01-15T01:38:04;97552.94;;;-0.98;91.96
50226;BME280;36113;50.742;6.432;2024-01-15T01:40:29;97549.56;;;-1.06;92.41
50226;BME280;36113;50.742;6.432;2024-01-15T01:42:55;97558.59;;;-1.07;92.71
50226;BME280;36113;50.742;6.432;2024-01-15T01:45:20;97535.63;;;-1.19;92.61
50226;BME280;36113;50.742;6.432;2024-01-15T01:47:45;97556.69;;;-0.99;92.50
50226;BME280;36113;50.742;6.432;2024-01-15T01:50:12;97558.84;;;-1.08;92.98
50226;BME280;36113;50.742;6.432;2024-01-15T01:52:39;97576.38;;;-1.00;92.94
50226;BME280;36113;50.742;6.432;2024-01-15T01:55:06;97582.97;;;-1.03;93.33
50226;BME280;36113;50.742;6.432;2024-01-15T01:57:32;97558.00;;;-1.20;93.13
50226;BME280;36113;50.742;6.432;2024-01-15T01:59:59;97572.31;;;-1.03;93.17
50226;BME280;36113;50.742;6.432;2024-01-15T02:02:25;97573.00;;;-1.08;93.31
50226;BME280;36113;50.742;6.432;2024-01-15T02:04:50;97550.25;;;-1.10;92.91
50226;BME280;36113;50.742;6.432;2024-01-15T02:07:16;97553.16;;;-1.12;92.55
50226;BME280;36113;50.742;6.432;2024-01-15T02:09:44;97513.66;;;-1.33;92.72
50226;BME280;36113;50.742;6.432;2024-01-15T02:12:10;97537.84;;;-1.16;92.58
50226;BME280;36113;50.742;6.432;2024-01-15T02:14:36;97556.91;;;-1.01;92.51
50226;BME280;36113;50.742;6.432;2024-01-15T02:17:01;97532.72;;;-1.18;92.51
50226;BME280;36113;50.742;6.432;2024-01-15T02:19:27;97562.09;;;-1.06;92.54
50226;BME280;36113;50.742;6.432;2024-01-15T02:21:52;97570.44;;;-1.02;92.26
50226;BME280;36113;50.742;6.432;2024-01-15T02:24:17;97562.34;;;-0.96;92.18
50226;BME280;36113;50.742;6.432;2024-01-15T02:26:43;97556.53;;;-1.05;92.73
50226;BME280;36113;50.742;6.432;2024-01-15T02:29:08;97561.28;;;-1.07;93.08
50226;BME280;36113;50.742;6.432;2024-01-15T02:31:35;97573.59;;;-1.06;93.29
50226;BME280;36113;50.742;6.432;2024-01-15T02:34:01;97562.41;;;-1.14;93.60
50226;BME280;36113;50.742;6.432;2024-01-15T02:36:26;97557.31;;;-1.16;94.06
50226;BME280;36113;50.742;6.432;2024-01-15T02:38:51;97566.69;;;-1.13;94.39
50226;BME280;36113;50.742;6.432;2024-01-15T02:41:17;97553.81;;;-1.28;94.51
50226;BME280;36113;50.742;6.432;2024-01-15T02:43:42;97567.75;;;-1.14;94.51
50226;BME280;36113;50.742;6.432;2024-01-15T02:46:07;97555.69;;;-1.17;94.58
50226;BME280;36113;50.742;6.432;2024-01-15T02:48:33;97554.84;;;-1.17;94.82
50226;BME280;36113;50.742;6.432;2024-01-15T02:51:00;97564.88;;;-1.13;95.18
50226;BME280;36113;50.742;6.432;2024-01-15T02:53:25;97558.69;;;-1.13;95.03
50226;BME280;36113;50.742;6.432;2024-01-15T02:55:51;97548.50;;;-1.16;94.92
50226;BME280;36113;50.742;6.432;2024-01-15T02:58:16;97566.25;;;-1.10;95.37
50226;BME280;36113;50.742;6.432;2024-01-15T03:00:41;97567.19;;;-1.05;94.98
50226;BME280;36113;50.742;6.432;2024-01-15T03:03:07;97567.28;;;-1.11;94.92
50226;BME280;36113;50.742;6.432;2024-01-15T03:05:33;97558.13;;;-1.15;95.38
50226;BME280;36113;50.742;6.432;2024-01-15T03:07:58;97536.16;;;-1.29;95.27
50226;BME280;36113;50.742;6.432;2024-01-15T03:10:23;97527.56;;;-1.31;95.03
50226;BME280;36113;50.742;6.432;2024-01-15T03:12:49;97569.28;;;-1.07;95.05
50226;BME280;36113;50.742;6.432;2024-01-15T03:15:14;97561.41;;;-1.01;94.65
50226;BME280;36113;50.742;6.432;2024-01-15T03:17:41;97541.78;;;-1.19;94.73
50226;BME280;36113;50.742;6.432;2024-01-15T03:20:07;97527.03;;;-1.21;94.73
50226;BME280;36113;50.742;6.432;2024-01-15T03:22:33;97544.25;;;-1.06;95.18
50226;BME280;36113;50.742;6.432;2024-01-15T03:24:58;97537.63;;;-1.15;95.36
50226;BME280;36113;50.742;6.432;2024-01-15T03:27:24;97544.34;;;-1.12;95.28
50226;BME280;36113;50.742;6.432;2024-01-15T03:29:51;97553.16;;;-1.12;95.00
50226;BME280;36113;50.742;6.432;2024-01-15T03:32:16;97558.59;;;-1.07;95.03
50226;BME280;36113;50.742;6.432;2024-01-15T03:34:41;97564.78;;;-1.06;94.95
50226;BME280;36113;50.742;6.432;2024-01-15T03:37:07;97559.88;;;-1.09;95.09
50226;BME280;36113;50.742;6.432;2024-01-15T03:39:32;97550.47;;;-1.12;95.59
50226;BME280;36113;50.742;6.432;2024-01-15T03:41:58;97549.47;;;-1.11;95.59
50226;BME280;36113;50.742;6.432;2024-01-15T03:44:23;97555.13;;;-1.07;95.41
50226;BME280;36113;50.742;6.432;2024-01-15T03:46:48;97541.47;;;-1.11;95.65
50226;BME280;36113;50.742;6.432;2024-01-15T03:49:14;97537.75;;;-1.10;95.53
50226;BME280;36113;50.742;6.432;2024-01-15T03:51:40;97543.28;;;-1.11;95.32
50226;BME280;36113;50.742;6.432;2024-01-15T03:54:05;97540.19;;;-1.08;95.56
50226;BME280;36113;50.742;6.432;2024-01-15T03:56:30;97539.34;;;-1.09;95.45
50226;BME280;36113;50.742;6.432;2024-01-15T03:58:56;97531.72;;;-1.05;94.98
50226;BME280;36113;50.742;6.432;2024-01-15T04:01:21;97529.50;;;-1.08;95.13
50226;BME280;36113;50.742;6.432;2024-01-15T04:03:46;97533.78;;;-1.07;95.33
50226;BME280;36113;50.742;6.432;2024-01-15T04:06:11;97528.25;;;-1.06;95.19
50226;BME280;36113;50.742;6.432;2024-01-15T04:08:37;97524.78;;;-1.06;95.31
50226;BME280;36113;50.742;6.432;2024-01-15T04:11:02;97516.88;;;-1.01;94.93
50226;BME280;36113;50.742;6.432;2024-01-15T04:13:28;97501.09;;;-1.14;95.19
50226;BME280;36113;50.742;6.432;2024-01-15T04:15:53;97523.84;;;-1.00;95.42
50226;BME280;36113;50.742;6.432;2024-01-15T04:18:18;97527.09;;;-0.98;95.32
50226;BME280;36113;50.742;6.432;2024-01-15T04:20:44;97497.84;;;-1.16;95.24
50226;BME280;36113;50.742;6.432;2024-01-15T04:23:09;97512.72;;;-0.97;95.53
50226;BME280;36113;50.742;6.432;2024-01-15T04:25:34;97518.19;;;-0.92;95.38
50226;BME280;36113;50.742;6.432;2024-01-15T04:28:00;97518.28;;;-0.87;95.19
50226;BME280;36113;50.742;6.432;2024-01-15T04:30:26;97514.47;;;-0.91;95.37
50226;BME280;36113;50.742;6.432;2024-01-15T04:32:51;97508.69;;;-0.88;95.54
50226;BME280;36113;50.742;6.432;2024-01-15T04:35:16;97510.88;;;-0.85;95.53
50226;BME280;36113;50.742;6.432;2024-01-15T04:37:42;97502.28;;;-0.87;95.31
50226;BME280;36113;50.742;6.432;2024-01-15T04:40:07;97495.34;;;-0.88;95.61
50226;BME280;36113;50.742;6.432;2024-01-15T04:42:33;97507.97;;;-0.83;95.46
50226;BME280;36113;50.742;6.432;2024-01-15T04:44:59;97502.66;;;-0.83;95.75
50226;BME280;36113;50.742;6.432;2024-01-15T04:47:24;97505.53;;;-0.85;95.84
50226;BME280;36113;50.742;6.432;2024-01-15T04:49:50;97507.97;;;-0.83;96.38
50226;BME280;36113;50.742;6.432;2024-01-15T04:52:15;97494.63;;;-0.95;96.41
50226;BME280;36113;50.742;6.432;2024-01-15T04:54:40;97497.41;;;-0.90;96.65
50226;BME280;36113;50.742;6.432;2024-01-15T04:57:06;97496.63;;;-0.90;96.92
50226;BME280;36113;50.742;6.432;2024-01-15T04:59:31;97500.69;;;-0.88;96.71
50226;BME280;36113;50.742;6.432;2024-01-15T05:01:57;97499.03;;;-0.89;96.45
50226;BME280;36113;50.742;6.432;2024-01-15T05:04:22;97485.69;;;-0.89;96.45
50226;BME280;36113;50.742;6.432;2024-01-15T05:06:48;97469.91;;;-1.02;96.31
50226;BME280;36113;50.742;6.432;2024-01-15T05:09:13;97496.25;;;-0.82;96.00
50226;BME280;36113;50.742;6.432;2024-01-15T05:11:39;97487.44;;;-0.82;95.74
50226;BME280;36113;50.742;6.432;2024-01-15T05:14:05;97443.44;;;-1.15;95.81
50226;BME280;36113;50.742;6.432;2024-01-15T05:16:30;97489.09;;;-0.81;96.22
50226;BME280;36113;50.742;6.432;2024-01-15T05:18:55;97487.59;;;-0.77;95.89
50226;BME280;36113;50.742;6.432;2024-01-15T05:21:21;97484.66;;;-0.76;95.73
50226;BME280;36113;50.742;6.432;2024-01-15T05:23:46;97482.47;;;-0.79;95.70
50226;BME280;36113;50.742;6.432;2024-01-15T05:26:11;97487.00;;;-0.79;95.98
50226;BME280;36113;50.742;6.432;2024-01-15T05:28:37;97495.91;;;-0.74;96.24
50226;BME280;36113;50.742;6.432;2024-01-15T05:31:02;97476.56;;;-0.81;96.04
50226;BME280;36113;50.742;6.432;2024-01-15T05:33:29;97474.81;;;-0.87;96.01
50226;BME280;36113;50.742;6.432;2024-01-15T05:35:54;97477.25;;;-0.86;96.13
50226;BME280;36113;50.742;6.432;2024-01-15T05:38:20;97475.16;;;-0.84;96.04
50226;BME280;36113;50.742;6.432;2024-01-15T05:40:45;97478.31;;;-0.75;96.10
50226;BME280;36113;50.742;6.432;2024-01-15T05:43:11;97483.38;;;-0.73;95.70
50226;BME280;36113;50.742;6.432;2024-01-15T05:45:38;97466.09;;;-0.82;95.93
50226;BME280;36113;50.742;6.432;2024-01-15T05:48:04;97479.59;;;-0.77;95.89
50226;BME280;36113;50.742;6.432;2024-01-15T05:50:29;97480.03;;;-0.69;95.58
50226;BME280;36113;50.742;6.432;2024-01-15T05:52:54;97475.53;;;-0.68;95.94
50226;BME280;36113;50.742;6.432;2024-01-15T05:55:20;97479.22;;;-0.69;95.71
50226;BME280;36113;50.742;6.432;2024-01-15T05:57:45;97470.41;;;-0.70;95.79
50226;BME280;36113;50.742;6.432;2024-01-15T06:00:11;97466.69;;;-0.69;95.50
50226;BME280;36113;50.742;6.432;2024-01-15T06:02:39;97471.09;;;-0.63;95.75
50226;BME280;36113;50.742;6.432;2024-01-15T06:05:05;97473.53;;;-0.61;95.54
50226;BME280;36113;50.742;6.432;2024-01-15T06:07:31;97462.28;;;-0.63;95.51
50226;BME280;36113;50.742;6.432;2024-01-15T06:09:57;97461.00;;;-0.60;95.52
50226;BME280;36113;50.742;6.432;2024-01-15T06:12:22;97466.47;;;-0.55;95.55
50226;BME280;36113;50.742;6.432;2024-01-15T06:14:48;97451.50;;;-0.56;95.30
50226;BME280;36113;50.742;6.432;2024-01-15T06:17:13;97437.13;;;-0.55;95.38
50226;BME280;36113;50.742;6.432;2024-01-15T06:19:38;97454.03;;;-0.50;94.85
50226;BME280;36113;50.742;6.432;2024-01-15T06:22:04;97456.13;;;-0.52;94.97
50226;BME280;36113;50.742;6.432;2024-01-15T06:24:29;97456.94;;;-0.51;94.97
50226;BME280;36113;50.742;6.432;2024-01-15T06:26:54;97451.00;;;-0.53;95.09
50226;BME280;36113;50.742;6.432;2024-01-15T06:29:19;97430.47;;;-0.65;94.86
50226;BME280;36113;50.742;6.432;2024-01-15T06:31:45;97403.34;;;-0.85;94.96
50226;BME280;36113;50.742;6.432;2024-01-15T06:34:10;97446.50;;;-0.53;94.47
50226;BME280;36113;50.742;6.432;2024-01-15T06:36:36;97417.38;;;-0.66;94.68
50226;BME280;36113;50.742;6.432;2024-01-15T06:39:01;97447.66;;;-0.49;94.39
50226;BME280;36113;50.742;6.432;2024-01-15T06:41:27;97426.19;;;-0.54;94.62
50226;BME280;36113;50.742;6.432;2024-01-15T06:43:52;97430.94;;;-0.56;94.12
50226;BME280;36113;50.742;6.432;2024-01-15T06:46:21;97433.28;;;-0.59;94.26
50226;BME280;36113;50.742;6.432;2024-01-15T06:48:47;97440.94;;;-0.63;94.05
50226;BME280;36113;50.742;6.432;2024-01-15T06:51:12;97430.03;;;-0.61;94.09
50226;BME280;36113;50.742;6.432;2024-01-15T06:53:38;97440.56;;;-0.67;93.90
50226;BME280;36113;50.742;6.432;2024-01-15T06:56:03;97406.03;;;-0.85;93.92
50226;BME280;36113;50.742;6.432;2024-01-15T06:58:31;97423.78;;;-0.79;93.96
50226;BME280;36113;50.742;6.432;2024-01-15T07:00:56;97443.38;;;-0.61;93.66
50226;BME280;36113;50.742;6.432;2024-01-15T07:03:21;97445.22;;;-0.62;93.72
50226;BME280;36113;50.742;6.432;2024-01-15T07:05:47;97426.78;;;-0.64;93.88
50226;BME280;36113;50.742;6.432;2024-01-15T07:08:12;97430.72;;;-0.54;93.43
50226;BME280;36113;50.742;6.432;2024-01-15T07:10:38;97434.09;;;-0.59;93.48
50226;BME280;36113;50.742;6.432;2024-01-15T07:13:03;97424.22;;;-0.58;93.44
50226;BME280;36113;50.742;6.432;2024-01-15T07:15:30;97423.75;;;-0.55;93.02
50226;BME280;36113;50.742;6.432;2024-01-15T07:17:55;97425.97;;;-0.64;93.33
50226;BME280;36113;50.742;6.432;2024-01-15T07:20:21;97433.50;;;-0.61;93.38
50226;BME280;36113;50.742;6.432;2024-01-15T07:22:46;97427.59;;;-0.63;92.99
50226;BME280;36113;50.742;6.432;2024-01-15T07:25:11;97420.97;;;-0.72;93.33
50226;BME280;36113;50.742;6.432;2024-01-15T07:27:38;97422.25;;;-0.63;93.22
50226;BME280;36113;50.742;6.432;2024-01-15T07:30:03;97415.75;;;-0.67;93.20
50226;BME280;36113;50.742;6.432;2024-01-15T07:32:30;97422.47;;;-0.65;93.20
50226;BME280;36113;50.742;6.432;2024-01-15T07:34:56;97398.59;;;-0.83;93.05
50226;BME280;36113;50.742;6.432;2024-01-15T07:37:22;97413.88;;;-0.67;93.19
50226;BME280;36113;50.742;6.432;2024-01-15T07:39:48;97408.31;;;-0.65;92.71
50226;BME280;36113;50.742;6.432;2024-01-15T07:42:14;97416.34;;;-0.65;92.74
50226;BME280;36113;50.742;6.432;2024-01-15T07:44:39;97420.06;;;-0.66;92.99
50226;BME280;36113;50.742;6.432;2024-01-15T07:47:05;97422.25;;;-0.63;92.73
50226;BME280;36113;50.742;6.432;2024-01-15T07:49:30;97445.56;;;-0.58;92.59
50226;BME280;36113;50.742;6.432;2024-01-15T07:51:55;97435.47;;;-0.56;92.51
50226;BME280;36113;50.742;6.432;2024-01-15T07:54:21;97422.59;;;-0.59;92.63
50226;BME280;36113;50.742;6.432;2024-01-15T07:57:02;97422.47;;;-0.53;92.11
50226;BME280;36113;50.742;6.432;2024-01-15T07:59:31;97420.50;;;-0.57;92.38
50226;BME280;36113;50.742;6.432;2024-01-15T08:01:58;97396.97;;;-0.72;92.11
50226;BME280;36113;50.742;6.432;2024-01-15T08:04:24;97393.59;;;-0.68;92.27
50226;BME280;36113;50.742;6.432;2024-01-15T08:06:49;97390.13;;;-0.68;92.30
50226;BME280;36113;50.742;6.432;2024-01-15T08:09:15;97422.34;;;-0.46;91.79
50226;BME280;36113;50.742;6.432;2024-01-15T08:11:40;97386.28;;;-0.60;91.79
50226;BME280;36113;50.742;6.432;2024-01-15T08:14:07;97391.75;;;-0.55;91.70
50226;BME280;36113;50.742;6.432;2024-01-15T08:16:32;97396.69;;;-0.47;91.91
50226;BME280;36113;50.742;6.432;2024-01-15T08:18:57;97382.91;;;-0.56;91.79
50226;BME280;36113;50.742;6.432;2024-01-15T08:21:23;97407.25;;;-0.40;91.55
50226;BME280;36113;50.742;6.432;2024-01-15T08:23:48;97419.31;;;-0.38;91.30
50226;BME280;36113;50.742;6.432;2024-01-15T08:26:14;97418.19;;;-0.42;91.38
50226;BME280;36113;50.742;6.432;2024-01-15T08:28:39;97415.16;;;-0.46;91.17
50226;BME280;36113;50.742;6.432;2024-01-15T08:31:04;97420.13;;;-0.37;91.21
50226;BME280;36113;50.742;6.432;2024-01-15T08:33:29;97421.75;;;-0.36;91.28
50226;BME280;36113;50.742;6.432;2024-01-15T08:35:55;97417.59;;;-0.44;91.73
50226;BME280;36113;50.742;6.432;2024-01-15T08:38:21;97411.31;;;-0.50;92.11
50226;BME280;36113;50.742;6.432;2024-01-15T08:40:46;97408.56;;;-0.55;92.05
50226;BME280;36113;50.742;6.432;2024-01-15T08:43:12;97433.81;;;-0.34;91.95
50226;BME280;36113;50.742;6.432;2024-01-15T08:45:38;97426.50;;;-0.38;92.14
50226;BME280;36113;50.742;6.432;2024-01-15T08:48:03;97425.47;;;-0.37;92.54
50226;BME280;36113;50.742;6.432;2024-01-15T08:50:29;97434.97;;;-0.30;92.61
50226;BME280;36113;50.742;6.432;2024-01-15T08:52:55;97436.13;;;-0.26;92.49
50226;BME280;36113;50.742;6.432;2024-01-15T08:55:21;97427.63;;;-0.23;92.34
50226;BME280;36113;50.742;6.432;2024-01-15T08:57:48;97436.22;;;-0.09;91.90
50226;BME280;36113;50.742;6.432;2024-01-15T09:00:13;97433.75;;;-0.10;91.41
50226;BME280;36113;50.742;6.432;2024-01-15T09:02:39;97442.22;;;-0.02;90.30
50226;BME280;36113;50.742;6.432;2024-01-15T09:05:04;97456.50;;;-0.08;90.84
50226;BME280;36113;50.742;6.432;2024-01-15T09:07:30;97464.56;;;-0.19;90.98
50226;BME280;36113;50.742;6.432;2024-01-15T09:09:55;97472.00;;;-0.22;90.97
50226;BME280;36113;50.742;6.432;2024-01-15T09:12:21;97478.72;;;-0.19;91.09
50226;BME280;36113;50.742;6.432;2024-01-15T09:14:47;97479.88;;;-0.27;90.94
50226;BME280;36113;50.742;6.432;2024-01-15T09:17:12;97452.97;;;-0.37;91.20
50226;BME280;36113;50.742;6.432;2024-01-15T09:19:38;97470.47;;;-0.29;91.64
50226;BME280;36113;50.742;6.432;2024-01-15T09:22:05;97477.59;;;-0.35;92.02
50226;BME280;36113;50.742;6.432;2024-01-15T09:24:30;97447.09;;;-0.51;92.47
50226;BME280;36113;50.742;6.432;2024-01-15T09:26:55;97483.97;;;-0.36;93.05
50226;BME280;36113;50.742;6.432;2024-01-15T09:29:21;97464.38;;;-0.42;93.09
50226;BME280;36113;50.742;6.432;2024-01-15T09:31:48;97468.53;;;-0.34;93.30
50226;BME280;36113;50.742;6.432;2024-01-15T09:34:15;97463.97;;;-0.33;93.24
50226;BME280;36113;50.742;6.432;2024-01-15T09:36:40;97449.97;;;-0.40;92.95
50226;BME280;36113;50.742;6.432;2024-01-15T09:39:07;97472.25;;;-0.35;92.94
50226;BME280;36113;50.742;6.432;2024-01-15T09:41:37;97453.56;;;-0.47;92.46
50226;BME280;36113;50.742;6.432;2024-01-15T09:44:03;97452.41;;;-0.39;92.66
50226;BME280;36113;50.742;6.432;2024-01-15T09:46:30;97481.16;;;-0.17;92.47
50226;BME280;36113;50.742;6.432;2024-01-15T09:48:56;97478.72;;;-0.19;92.64
50226;BME280;36113;50.742;6.432;2024-01-15T09:51:22;97479.31;;;-0.17;92.55
50226;BME280;36113;50.742;6.432;2024-01-15T09:53:48;97479.41;;;-0.12;92.59
50226;BME280;36113;50.742;6.432;2024-01-15T09:56:14;97482.06;;;-0.12;92.23
50226;BME280;36113;50.742;6.432;2024-01-15T09:58:41;97483.94;;;-0.12;92.25
50226;BME280;36113;50.742;6.432;2024-01-15T10:01:08;97482.69;;;-0.22;92.11
50226;BME280;36113;50.742;6.432;2024-01-15T10:03:33;97477.34;;;-0.22;92.36
50226;BME280;36113;50.742;6.432;2024-01-15T10:05:59;97460.19;;;-0.37;92.87
50226;BME280;36113;50.742;6.432;2024-01-15T10:08:25;97468.53;;;-0.22;93.03
50226;BME280;36113;50.742;6.432;2024-01-15T10:10:50;97480.91;;;-0.16;92.62
50226;BME280;36113;50.742;6.432;2024-01-15T10:13:16;97486.25;;;-0.16;92.84
50226;BME280;36113;50.742;6.432;2024-01-15T10:15:45;97483.00;;;-0.18;92.70
50226;BME280;36113;50.742;6.432;2024-01-15T10:18:11;97456.94;;;-0.39;92.98
50226;BME280;36113;50.742;6.432;2024-01-15T10:20:37;97477.34;;;-0.22;92.78
50226;BME280;36113;50.742;6.432;2024-01-15T10:23:03;97466.97;;;-0.18;92.99
50226;BME280;36113;50.742;6.432;2024-01-15T10:25:29;97482.16;;;-0.07;92.33
50226;BME280;36113;50.742;6.432;2024-01-15T10:28:01;97477.66;;;-0.06;92.37
50226;BME280;36113;50.742;6.432;2024-01-15T10:30:27;97452.59;;;-0.17;92.45
50226;BME280;36113;50.742;6.432;2024-01-15T10:33:00;97482.88;;;0.01;92.29
50226;BME280;36113;50.742;6.432;2024-01-15T10:35:33;97470.22;;;-0.16;92.77
50226;BME280;36113;50.742;6.432;2024-01-15T10:38:00;97440.78;;;-0.33;93.14
50226;BME280;36113;50.742;6.432;2024-01-15T10:40:25;97481.94;;;-0.05;92.54
50226;BME280;36113;50.742;6.432;2024-01-15T10:42:50;97470.94;;;-0.09;92.76
50226;BME280;36113;50.742;6.432;2024-01-15T10:45:16;97484.03;;;-0.07;92.53
50226;BME280;36113;50.742;6.432;2024-01-15T10:47:42;97476.06;;;-0.19;92.22
50226;BME280;36113;50.742;6.432;2024-01-15T10:50:09;97480.47;;;-0.13;92.44
50226;BME280;36113;50.742;6.432;2024-01-15T10:52:39;97457.97;;;-0.29;92.57
50226;BME280;36113;50.742;6.432;2024-01-15T10:55:08;97471.50;;;-0.18;92.27
50226;BME280;36113;50.742;6.432;2024-01-15T10:57:35;97424.44;;;-0.48;92.19
50226;BME280;36113;50.742;6.432;2024-01-15T11:00:01;97466.66;;;-0.22;91.61
50226;BME280;36113;50.742;6.432;2024-01-15T11:02:29;97468.13;;;-0.14;91.58
50226;BME280;36113;50.742;6.432;2024-01-15T11:04:55;97469.78;;;-0.13;91.50
50226;BME280;36113;50.742;6.432;2024-01-15T11:07:22;97476.28;;;-0.09;91.33
50226;BME280;36113;50.742;6.432;2024-01-15T11:09:49;97468.72;;;-0.12;91.00
50226;BME280;36113;50.742;6.432;2024-01-15T11:12:16;97453.16;;;-0.15;90.75
50226;BME280;36113;50.742;6.432;2024-01-15T11:14:46;97484.34;;;0.08;90.55
50226;BME280;36113;50.742;6.432;2024-01-15T11:17:12;97485.94;;;0.21;90.13
50226;BME280;36113;50.742;6.432;2024-01-15T11:19:48;97486.16;;;0.31;89.49
50226;BME280;36113;50.742;6.432;2024-01-15T11:24:56;97489.34;;;0.45;88.89
50226;BME280;36113;50.742;6.432;2024-01-15T11:27:40;97494.25;;;0.36;88.93
50226;BME280;36113;50.742;6.432;2024-01-15T11:30:11;97483.06;;;0.39;88.82
50226;BME280;36113;50.742;6.432;2024-01-15T11:32:37;97482.84;;;0.41;88.64
50226;BME280;36113;50.742;6.432;2024-01-15T11:35:06;97475.53;;;0.36;88.16
50226;BME280;36113;50.742;6.432;2024-01-15T11:42:58;97476.69;;;0.40;87.58
50226;BME280;36113;50.742;6.432;2024-01-15T11:45:23;97488.97;;;0.53;87.02
50226;BME280;36113;50.742;6.432;2024-01-15T11:48:11;97493.63;;;0.75;86.59
50226;BME280;36113;50.742;6.432;2024-01-15T11:50:40;97484.47;;;0.88;85.73
50226;BME280;36113;50.742;6.432;2024-01-15T11:53:16;97487.75;;;1.07;85.20
50226;BME280;36113;50.742;6.432;2024-01-15T11:55:44;97469.59;;;1.09;84.28
50226;BME280;36113;50.742;6.432;2024-01-15T11:58:11;97490.91;;;1.20;84.11
50226;BME280;36113;50.742;6.432;2024-01-15T12:00:43;97484.50;;;1.21;83.84
50226;BME280;36113;50.742;6.432;2024-01-15T12:03:09;97480.78;;;1.22;83.56
50226;BME280;36113;50.742;6.432;2024-01-15T12:05:37;97474.34;;;1.23;83.70
50226;BME280;36113;50.742;6.432;2024-01-15T12:08:03;97477.03;;;1.23;83.79
50226;BME280;36113;50.742;6.432;2024-01-15T12:10:28;97492.22;;;1.18;83.77
50226;BME280;36113;50.742;6.432;2024-01-15T12:13:04;97486.84;;;1.01;83.41
50226;BME280;36113;50.742;6.432;2024-01-15T12:15:31;97498.94;;;0.87;83.59
50226;BME280;36113;50.742;6.432;2024-01-15T12:17:58;97473.25;;;0.57;83.17
50226;BME280;36113;50.742;6.432;2024-01-15T12:20:27;97495.78;;;0.61;84.06
50226;BME280;36113;50.742;6.432;2024-01-15T12:22:53;97490.63;;;0.71;84.10
50226;BME280;36113;50.742;6.432;2024-01-15T12:25:20;97469.16;;;0.83;83.73
50226;BME280;36113;50.742;6.432;2024-01-15T12:27:45;97485.88;;;1.07;83.14
50226;BME280;36113;50.742;6.432;2024-01-15T12:30:12;97486.28;;;1.16;81.52
50226;BME280;36113;50.742;6.432;2024-01-15T12:32:38;97473.47;;;1.01;81.01
50226;BME280;36113;50.742;6.432;2024-01-15T12:35:03;97457.97;;;0.86;81.32
50226;BME280;36113;50.742;6.432;2024-01-15T12:37:30;97436.81;;;0.85;81.21
50226;BME280;36113;50.742;6.432;2024-01-15T12:39:55;97459.44;;;0.94;81.08
50226;BME280;36113;50.742;6.432;2024-01-15T12:42:21;97489.84;;;1.05;80.79
50226;BME280;36113;50.742;6.432;2024-01-15T12:44:47;97484.72;;;0.86;81.44
50226;BME280;36113;50.742;6.432;2024-01-15T12:47:12;97498.53;;;0.66;82.42
50226;BME280;36113;50.742;6.432;2024-01-15T12:49:39;97495.59;;;0.51;83.81
50226;BME280;36113;50.742;6.432;2024-01-15T12:52:08;97502.09;;;0.55;83.92
50226;BME280;36113;50.742;6.432;2024-01-15T12:54:33;97501.34;;;0.43;84.60
50226;BME280;36113;50.742;6.432;2024-01-15T12:56:59;97501.47;;;0.36;85.36
50226;BME280;36113;50.742;6.432;2024-01-15T12:59:24;97500.69;;;0.24;85.79
50226;BME280;36113;50.742;6.432;2024-01-15T13:01:50;97496.28;;;0.17;86.26
50226;BME280;36113;50.742;6.432;2024-01-15T13:04:24;97511.28;;;0.18;85.85